createdAt,value
2019-02-02T00:00:06.825Z,94606.86
2019-02-02T00:02:03.609Z,94607.27
2019-02-02T00:03:39.151Z,94607.70
2019-02-02T00:05:15.277Z,94605.44
2019-02-02T00:06:53.424Z,94610.14
2019-02-02T00:08:30.279Z,94614.61
2019-02-02T00:10:09.070Z,94618.48
2019-02-02T00:11:44.758Z,94637.06
2019-02-02T00:13:22.423Z,94641.16
2019-02-02T00:14:58.136Z,94639.06
2019-02-02T00:16:33.262Z,94614.07
2019-02-02T00:18:15.073Z,94607.64
2019-02-02T00:19:55.870Z,94609.91
2019-02-02T00:21:32.664Z,94606.36
2019-02-02T00:23:09.536Z,94626.87
2019-02-02T00:24:47.343Z,94631.17
2019-02-02T00:26:29.745Z,94627.19
2019-02-02T00:28:07.246Z,94633.40
2019-02-02T00:29:42.529Z,94637.41
2019-02-02T00:31:21.039Z,94634.74
2019-02-02T00:32:58.474Z,94633.06
2019-02-02T00:34:34.022Z,94642.73
2019-02-02T00:36:10.602Z,94653.15
2019-02-02T00:37:48.899Z,94692.44
2019-02-02T00:39:24.478Z,94695.20
2019-02-02T00:41:00.833Z,94699.66
2019-02-02T00:42:36.776Z,94702.24
2019-02-02T00:44:12.021Z,94704.06
2019-02-02T00:45:48.840Z,94705.86
2019-02-02T00:47:24.612Z,94701.42
2019-02-02T00:49:01.766Z,94710.14
2019-02-02T00:50:37.633Z,94715.09
2019-02-02T00:52:15.753Z,94709.55
2019-02-02T00:53:51.202Z,94710.91
2019-02-02T00:55:29.953Z,94708.38
2019-02-02T00:57:05.355Z,94704.96
2019-02-02T00:58:44.060Z,94697.47
2019-02-02T01:00:24.046Z,94703.02
2019-02-02T01:01:59.529Z,94699.09
2019-02-02T01:03:34.964Z,94697.27
2019-02-02T01:05:12.692Z,94684.71
2019-02-02T01:06:51.227Z,94682.93
2019-02-02T01:08:26.474Z,94675.00
2019-02-02T01:10:01.763Z,94642.55
2019-02-02T01:11:37.087Z,94640.29
2019-02-02T01:13:19.385Z,94638.78
2019-02-02T01:14:52.477Z,94639.38
2019-02-02T01:16:30.067Z,94633.71
2019-02-02T01:18:05.838Z,94633.55
2019-02-02T01:19:41.111Z,94632.83
2019-02-02T01:21:16.712Z,94629.95
2019-02-02T01:22:52.939Z,94633.43
2019-02-02T01:24:31.386Z,94628.48
2019-02-02T01:26:13.995Z,94631.77
2019-02-02T01:28:04.315Z,94628.83
2019-02-02T01:29:29.017Z,94623.75
2019-02-02T01:31:04.656Z,94620.73
2019-02-02T01:32:40.424Z,94614.31
2019-02-02T01:34:15.875Z,94617.48
2019-02-02T01:35:51.139Z,94620.64
2019-02-02T01:37:26.326Z,94622.58
2019-02-02T01:39:04.666Z,94616.75
2019-02-02T01:40:43.772Z,94619.88
2019-02-02T01:42:19.480Z,94613.14
2019-02-02T01:43:55.257Z,94607.18
2019-02-02T01:45:32.121Z,94600.75
2019-02-02T01:47:08.072Z,94600.75
2019-02-02T01:48:44.019Z,94592.66
2019-02-02T01:50:21.356Z,94588.33
2019-02-02T01:51:57.619Z,94590.09
2019-02-02T01:53:36.148Z,94587.11
2019-02-02T01:55:12.361Z,94583.52
2019-02-02T01:56:47.636Z,94584.27
2019-02-02T01:58:22.967Z,94588.16
2019-02-02T01:59:58.253Z,94581.74
2019-02-02T02:01:36.603Z,94583.25
2019-02-02T02:03:13.977Z,94585.03
2019-02-02T02:04:54.341Z,94585.19
2019-02-02T02:06:33.616Z,94583.99
2019-02-02T02:08:08.912Z,94579.50
2019-02-02T02:09:53.105Z,94573.67
2019-02-02T02:11:28.541Z,94573.95
2019-02-02T02:13:04.258Z,94572.61
2019-02-02T02:14:46.128Z,94569.75
2019-02-02T02:16:22.761Z,94571.70
2019-02-02T02:17:58.173Z,94559.72
2019-02-02T02:19:33.585Z,94563.77
2019-02-02T02:21:10.452Z,94558.22
2019-02-02T02:22:50.282Z,94550.87
2019-02-02T02:24:25.492Z,94546.98
2019-02-02T02:26:02.978Z,94539.50
2019-02-02T02:27:38.435Z,94536.65
2019-02-02T02:29:14.099Z,94528.72
2019-02-02T02:30:49.594Z,94536.81
2019-02-02T02:32:24.740Z,94529.31
2019-02-02T02:34:00.500Z,94525.14
2019-02-02T02:35:36.594Z,94532.77
2019-02-02T02:37:12.856Z,94535.91
2019-02-02T02:38:48.839Z,94530.08
2019-02-02T02:40:24.314Z,94535.16
2019-02-02T02:42:00.169Z,94532.02
2019-02-02T02:43:35.422Z,94529.92
2019-02-02T02:45:13.267Z,94533.83
2019-02-02T02:46:49.134Z,94529.78
2019-02-02T02:48:24.342Z,94532.77
2019-02-02T02:49:59.749Z,94529.78
2019-02-02T02:51:34.998Z,94535.63
2019-02-02T02:53:10.216Z,94532.91
2019-02-02T02:54:51.226Z,94532.62
2019-02-02T02:56:28.111Z,94534.85
2019-02-02T02:58:03.914Z,94534.70
2019-02-02T02:59:39.196Z,94532.59
2019-02-02T03:01:14.349Z,94529.30
2019-02-02T03:02:50.263Z,94524.95
2019-02-02T03:04:26.381Z,94525.70
2019-02-02T03:06:01.914Z,94530.34
2019-02-02T03:07:37.062Z,94533.05
2019-02-02T03:09:12.524Z,94533.95
2019-02-02T03:10:48.143Z,94521.97
2019-02-02T03:12:24.338Z,94522.41
2019-02-02T03:13:59.666Z,94522.56
2019-02-02T03:15:35.215Z,94518.08
2019-02-02T03:17:10.508Z,94524.52
2019-02-02T03:18:46.760Z,94534.84
2019-02-02T03:20:22.379Z,94547.13
2019-02-02T03:21:58.143Z,94552.22
2019-02-02T03:23:33.297Z,94554.59
2019-02-02T03:25:11.795Z,94559.52
2019-02-02T03:26:47.357Z,94557.42
2019-02-02T03:28:26.862Z,94551.43
2019-02-02T03:30:03.526Z,94552.60
2019-02-02T03:31:39.186Z,94548.72
2019-02-02T03:33:14.426Z,94548.87
2019-02-02T03:34:50.013Z,94553.97
2019-02-02T03:36:25.499Z,94557.58
2019-02-02T03:38:01.401Z,94560.27
2019-02-02T03:39:36.834Z,94561.46
2019-02-02T03:41:12.068Z,94559.05
2019-02-02T03:42:47.542Z,94563.72
2019-02-02T03:44:23.258Z,94563.56
2019-02-02T03:45:58.854Z,94571.80
2019-02-02T03:47:40.022Z,94573.17
2019-02-02T03:49:15.588Z,94579.16
2019-02-02T03:50:51.084Z,94584.39
2019-02-02T03:52:26.398Z,94589.94
2019-02-02T03:54:08.896Z,94597.13
2019-02-02T03:55:39.173Z,94588.75
2019-02-02T03:57:14.560Z,94594.42
2019-02-02T03:58:50.150Z,94599.82
2019-02-02T04:00:25.513Z,94603.42
2019-02-02T04:02:00.720Z,94603.55
2019-02-02T04:03:36.034Z,94595.63
2019-02-02T04:05:17.094Z,94596.84
2019-02-02T04:06:52.417Z,94605.50
2019-02-02T04:08:52.129Z,94598.86
2019-02-02T04:10:40.227Z,94603.06
2019-02-02T04:12:36.536Z,94602.72
2019-02-02T04:14:18.712Z,94600.49
2019-02-02T04:16:00.296Z,94596.89
2019-02-02T04:17:35.967Z,94597.58
2019-02-02T04:19:17.834Z,94602.81
2019-02-02T04:20:52.935Z,94604.87
2019-02-02T04:22:29.059Z,94603.97
2019-02-02T04:24:04.546Z,94600.20
2019-02-02T04:25:39.615Z,94600.37
2019-02-02T04:27:14.894Z,94598.70
2019-02-02T04:28:50.054Z,94607.84
2019-02-02T04:30:26.502Z,94606.47
2019-02-02T04:32:06.077Z,94602.27
2019-02-02T04:33:43.271Z,94605.56
2019-02-02T04:35:18.641Z,94609.56
2019-02-02T04:36:54.022Z,94609.88
2019-02-02T04:38:29.395Z,94612.56
2019-02-02T04:40:10.324Z,94611.65
2019-02-02T04:41:50.310Z,94616.61
2019-02-02T04:43:25.969Z,94615.70
2019-02-02T04:45:14.717Z,94617.95
2019-02-02T04:46:58.163Z,94627.22
2019-02-02T04:48:36.066Z,94617.00
2019-02-02T04:50:21.992Z,94621.63
2019-02-02T04:52:06.733Z,94620.87
2019-02-02T04:53:54.200Z,94624.75
2019-02-02T04:55:44.150Z,94621.74
2019-02-02T04:57:22.692Z,94627.36
2019-02-02T04:59:07.743Z,94635.64
2019-02-02T05:00:43.216Z,94643.44
2019-02-02T05:02:21.019Z,94650.17
2019-02-02T05:03:59.830Z,94652.59
2019-02-02T05:05:36.221Z,94639.61
2019-02-02T05:07:11.520Z,94644.80
2019-02-02T05:08:47.899Z,94645.31
2019-02-02T05:10:24.029Z,94648.16
2019-02-02T05:12:00.236Z,94647.25
2019-02-02T05:13:38.242Z,94642.90
2019-02-02T05:15:16.845Z,94644.84
2019-02-02T05:16:54.279Z,94645.11
2019-02-02T05:18:33.116Z,94636.86
2019-02-02T05:20:09.152Z,94638.38
2019-02-02T05:21:44.338Z,94639.99
2019-02-02T05:23:19.575Z,94643.13
2019-02-02T05:24:54.690Z,94635.70
2019-02-02T05:26:30.673Z,94638.01
2019-02-02T05:28:07.714Z,94640.81
2019-02-02T05:29:43.420Z,94637.58
2019-02-02T05:31:32.567Z,94639.84
2019-02-02T05:33:08.467Z,94640.28
2019-02-02T05:34:44.031Z,94644.80
2019-02-02T05:36:34.101Z,94643.59
2019-02-02T05:38:09.336Z,94647.38
2019-02-02T05:39:45.690Z,94648.56
2019-02-02T05:41:20.984Z,94644.09
2019-02-02T05:42:56.178Z,94649.69
2019-02-02T05:44:31.383Z,94645.05
2019-02-02T05:46:06.563Z,94646.73
2019-02-02T05:47:41.746Z,94651.91
2019-02-02T05:49:17.266Z,94656.22
2019-02-02T05:50:52.481Z,94659.07
2019-02-02T05:52:28.071Z,94656.09
2019-02-02T05:54:03.233Z,94657.28
2019-02-02T05:55:38.634Z,94660.67
2019-02-02T05:57:14.254Z,94659.60
2019-02-02T05:58:50.119Z,94667.68
2019-02-02T06:00:34.974Z,94664.98
2019-02-02T06:02:10.817Z,94663.41
2019-02-02T06:03:46.161Z,94666.88
2019-02-02T06:05:21.796Z,94669.29
2019-02-02T06:06:57.233Z,94672.14
2019-02-02T06:08:32.878Z,94667.67
2019-02-02T06:10:11.568Z,94676.18
2019-02-02T06:11:47.564Z,94678.39
2019-02-02T06:13:24.371Z,94672.30
2019-02-02T06:14:59.951Z,94675.59
2019-02-02T06:16:37.682Z,94673.28
2019-02-02T06:18:17.282Z,94675.42
2019-02-02T06:19:52.947Z,94676.73
2019-02-02T06:21:28.295Z,94682.70
2019-02-02T06:23:08.456Z,94685.23
2019-02-02T06:24:43.663Z,94688.67
2019-02-02T06:26:19.205Z,94686.89
2019-02-02T06:28:00.964Z,94683.28
2019-02-02T06:29:36.674Z,94681.62
2019-02-02T06:31:12.346Z,94685.66
2019-02-02T06:32:49.238Z,94680.81
2019-02-02T06:34:24.879Z,94687.70
2019-02-02T06:36:03.373Z,94687.53
2019-02-02T06:37:42.723Z,94693.50
2019-02-02T06:39:20.111Z,94696.58
2019-02-02T06:40:56.456Z,94702.81
2019-02-02T06:42:31.536Z,94700.93
2019-02-02T06:44:08.542Z,94709.88
2019-02-02T06:45:43.694Z,94713.26
2019-02-02T06:47:25.418Z,94715.65
2019-02-02T06:49:05.318Z,94718.48
2019-02-02T06:50:40.804Z,94715.41
2019-02-02T06:52:16.147Z,94723.70
2019-02-02T06:53:51.517Z,94727.65
2019-02-02T06:55:27.033Z,94727.81
2019-02-02T06:57:02.270Z,94728.73
2019-02-02T06:58:37.521Z,94724.73
2019-02-02T07:00:16.548Z,94739.12
2019-02-02T07:01:51.828Z,94734.92
2019-02-02T07:03:27.178Z,94732.01
2019-02-02T07:05:02.422Z,94739.12
2019-02-02T07:06:37.596Z,94738.37
2019-02-02T07:08:14.952Z,94741.61
2019-02-02T07:09:50.880Z,94738.22
2019-02-02T07:11:26.009Z,94739.92
2019-02-02T07:13:01.068Z,94747.08
2019-02-02T07:14:36.679Z,94749.94
2019-02-02T07:16:12.730Z,94744.92
2019-02-02T07:17:48.814Z,94745.90
2019-02-02T07:19:24.567Z,94747.66
2019-02-02T07:21:00.133Z,94753.81
2019-02-02T07:22:35.588Z,94754.08
2019-02-02T07:24:12.686Z,94755.27
2019-02-02T07:25:48.649Z,94756.27
2019-02-02T07:27:25.586Z,94754.06
2019-02-02T07:29:02.162Z,94764.23
2019-02-02T07:30:38.074Z,94754.56
2019-02-02T07:32:14.574Z,94761.35
2019-02-02T07:33:52.818Z,94763.34
2019-02-02T07:35:31.375Z,94762.91
2019-02-02T07:37:08.844Z,94764.15
2019-02-02T07:38:47.341Z,94763.31
2019-02-02T07:40:22.476Z,94761.78
2019-02-02T07:42:00.975Z,94766.81
2019-02-02T07:43:40.819Z,94772.67
2019-02-02T07:45:38.952Z,94773.45
2019-02-02T07:47:17.644Z,94774.69
2019-02-02T07:48:53.277Z,94778.94
2019-02-02T07:50:28.923Z,94772.82
2019-02-02T07:52:04.563Z,94775.83
2019-02-02T07:53:40.318Z,94790.81
2019-02-02T07:55:20.472Z,94781.86
2019-02-02T07:56:56.060Z,94792.95
2019-02-02T07:58:31.312Z,94800.90
2019-02-02T08:00:17.119Z,94805.41
2019-02-02T08:01:49.797Z,94804.39
2019-02-02T08:03:31.891Z,94802.50
2019-02-02T08:05:10.466Z,94801.91
2019-02-02T08:06:46.328Z,94808.28
2019-02-02T08:08:22.049Z,94811.22
2019-02-02T08:09:57.547Z,94813.86
2019-02-02T08:11:34.164Z,94820.51
2019-02-02T08:13:09.384Z,94814.58
2019-02-02T08:14:44.820Z,94823.64
2019-02-02T08:16:23.211Z,94824.69
2019-02-02T08:17:58.503Z,94828.43
2019-02-02T08:19:33.667Z,94834.14
2019-02-02T08:21:09.013Z,94828.69
2019-02-02T08:22:47.633Z,94832.20
2019-02-02T08:24:25.988Z,94834.66
2019-02-02T08:26:02.206Z,94832.13
2019-02-02T08:27:37.540Z,94833.42
2019-02-02T08:29:15.423Z,94833.69
2019-02-02T08:30:53.448Z,94843.30
2019-02-02T08:32:31.210Z,94841.63
2019-02-02T08:34:06.625Z,94846.31
2019-02-02T08:35:41.858Z,94849.35
2019-02-02T08:37:17.147Z,94851.57
2019-02-02T08:38:52.367Z,94858.40
2019-02-02T08:40:28.157Z,94861.59
2019-02-02T08:42:03.429Z,94862.24
2019-02-02T08:43:38.535Z,94863.59
2019-02-02T08:45:16.235Z,94870.92
2019-02-02T08:46:53.066Z,94868.34
2019-02-02T08:48:28.366Z,94868.91
2019-02-02T08:50:04.003Z,94869.29
2019-02-02T08:51:39.476Z,94867.92
2019-02-02T08:53:15.007Z,94877.45
2019-02-02T08:54:52.894Z,94871.03
2019-02-02T08:56:28.390Z,94876.36
2019-02-02T08:58:04.419Z,94879.13
2019-02-02T08:59:48.601Z,94882.02
2019-02-02T09:01:23.823Z,94887.00
2019-02-02T09:03:01.743Z,94886.88
2019-02-02T09:04:37.714Z,94881.22
2019-02-02T09:06:13.693Z,94881.97
2019-02-02T09:07:49.139Z,94885.12
2019-02-02T09:09:25.600Z,94885.31
2019-02-02T09:11:02.579Z,94888.17
2019-02-02T09:12:42.423Z,94890.88
2019-02-02T09:14:17.809Z,94889.27
2019-02-02T09:15:53.373Z,94890.65
2019-02-02T09:17:28.556Z,94892.47
2019-02-02T09:19:03.761Z,94882.67
2019-02-02T09:20:40.574Z,94883.11
2019-02-02T09:22:16.968Z,94887.16
2019-02-02T09:23:52.213Z,94886.88
2019-02-02T09:25:27.633Z,94888.98
2019-02-02T09:27:08.984Z,94888.19
2019-02-02T09:28:44.472Z,94894.93
2019-02-02T09:30:26.852Z,94893.63
2019-02-02T09:32:08.252Z,94898.31
2019-02-02T09:33:49.381Z,94890.06
2019-02-02T09:35:26.843Z,94893.72
2019-02-02T09:37:01.979Z,94893.91
2019-02-02T09:38:42.987Z,94884.60
2019-02-02T09:40:19.714Z,94886.78
2019-02-02T09:41:55.386Z,94895.35
2019-02-02T09:43:39.725Z,94887.57
2019-02-02T09:45:16.227Z,94891.94
2019-02-02T09:46:59.544Z,94892.77
2019-02-02T09:48:47.082Z,94895.46
2019-02-02T09:50:28.639Z,94903.88
2019-02-02T09:52:08.589Z,94901.50
2019-02-02T09:53:53.507Z,94903.41
2019-02-02T09:55:30.732Z,94905.98
2019-02-02T09:57:12.139Z,94899.86
2019-02-02T09:58:48.648Z,94906.23
2019-02-02T10:00:30.609Z,94911.32
2019-02-02T10:02:35.321Z,94913.42
2019-02-02T10:04:17.227Z,94914.02
2019-02-02T10:05:57.564Z,94909.19
2019-02-02T10:07:33.599Z,94921.11
2019-02-02T10:09:14.192Z,94914.86
2019-02-02T10:10:53.321Z,94906.62
2019-02-02T10:12:29.303Z,94905.42
2019-02-02T10:14:09.173Z,94904.55
2019-02-02T10:15:48.919Z,94894.50
2019-02-02T10:17:31.282Z,94899.63
2019-02-02T10:19:14.592Z,94892.87
2019-02-02T10:20:49.724Z,94893.42
2019-02-02T10:22:25.573Z,94898.87
2019-02-02T10:24:01.327Z,94887.16
2019-02-02T10:25:37.155Z,94882.52
2019-02-02T10:27:15.515Z,94886.14
2019-02-02T10:28:51.092Z,94889.89
2019-02-02T10:30:36.217Z,94893.03
2019-02-02T10:32:16.163Z,94889.42
2019-02-02T10:33:55.520Z,94892.88
2019-02-02T10:35:31.932Z,94899.65
2019-02-02T10:37:12.458Z,94893.63
2019-02-02T10:38:48.527Z,94938.05
2019-02-02T10:40:24.088Z,94938.94
2019-02-02T10:41:59.671Z,94941.79
2019-02-02T10:43:39.997Z,94951.25
2019-02-02T10:45:17.731Z,94947.64
2019-02-02T10:46:54.627Z,94952.14
2019-02-02T10:48:31.702Z,94954.70
2019-02-02T10:50:08.949Z,94960.77
2019-02-02T10:51:49.246Z,94959.14
2019-02-02T10:53:33.798Z,94962.30
2019-02-02T10:55:10.680Z,94967.53
2019-02-02T10:56:47.650Z,94969.05
2019-02-02T10:58:23.300Z,94973.05
2019-02-02T11:00:05.015Z,94974.27
2019-02-02T11:01:50.686Z,94978.02
2019-02-02T11:03:19.392Z,94974.30
2019-02-02T11:04:54.710Z,94983.89
2019-02-02T11:06:33.205Z,94972.90
2019-02-02T11:08:14.992Z,94978.17
2019-02-02T11:09:53.251Z,94979.77
2019-02-02T11:11:29.518Z,94984.57
2019-02-02T11:13:06.433Z,94987.77
2019-02-02T11:14:42.252Z,94991.56
2019-02-02T11:16:17.569Z,94990.67
2019-02-02T11:17:59.302Z,94995.93
2019-02-02T11:19:36.794Z,94996.06
2019-02-02T11:21:20.947Z,94999.00
2019-02-02T11:23:00.891Z,95004.45
2019-02-02T11:24:43.248Z,95006.09
2019-02-02T11:26:20.501Z,94991.38
2019-02-02T11:27:57.250Z,94993.20
2019-02-02T11:29:32.546Z,94994.11
2019-02-02T11:31:10.876Z,95002.80
2019-02-02T11:32:49.405Z,95004.30
2019-02-02T11:34:40.040Z,94999.94
2019-02-02T11:36:11.796Z,95001.75
2019-02-02T11:37:50.805Z,95002.97
2019-02-02T11:39:30.920Z,94995.93
2019-02-02T11:41:11.722Z,95003.75
2019-02-02T11:42:48.336Z,95007.94
2019-02-02T11:44:23.674Z,95005.83
2019-02-02T11:45:58.949Z,95012.56
2019-02-02T11:47:37.233Z,95015.17
2019-02-02T11:49:13.112Z,95013.50
2019-02-02T11:50:48.832Z,95017.27
2019-02-02T11:52:24.176Z,95014.15
2019-02-02T11:53:59.487Z,95023.32
2019-02-02T11:55:34.818Z,95017.94
2019-02-02T11:57:12.104Z,95019.55
2019-02-02T11:58:47.712Z,95020.19
2019-02-02T12:00:44.165Z,95027.11
2019-02-02T12:02:19.415Z,95025.92
2019-02-02T12:03:58.107Z,95033.00
2019-02-02T12:05:37.027Z,95030.14
2019-02-02T12:07:12.313Z,95022.76
2019-02-02T12:08:59.679Z,95025.36
2019-02-02T12:10:42.693Z,95018.29
2019-02-02T12:12:20.667Z,95020.72
2019-02-02T12:13:59.077Z,95014.84
2019-02-02T12:15:36.577Z,95022.81
2019-02-02T12:17:12.368Z,95024.48
2019-02-02T12:18:49.424Z,95022.06
2019-02-02T12:20:24.723Z,95019.20
2019-02-02T12:22:01.865Z,95017.84
2019-02-02T12:23:37.603Z,95023.39
2019-02-02T12:25:19.504Z,95029.00
2019-02-02T12:26:57.940Z,95026.44
2019-02-02T12:28:37.248Z,95030.66
2019-02-02T12:30:20.888Z,95031.69
2019-02-02T12:31:59.388Z,95040.72
2019-02-02T12:33:40.078Z,95044.93
2019-02-02T12:35:18.931Z,95044.45
2019-02-02T12:36:57.495Z,95040.54
2019-02-02T12:38:33.109Z,95046.73
2019-02-02T12:40:15.428Z,95054.40
2019-02-02T12:42:00.392Z,95051.98
2019-02-02T12:43:37.862Z,95053.64
2019-02-02T12:45:26.313Z,95059.65
2019-02-02T12:47:20.669Z,95060.11
2019-02-02T12:49:08.458Z,95059.34
2019-02-02T12:50:44.956Z,95065.77
2019-02-02T12:52:30.191Z,95069.69
2019-02-02T12:54:14.814Z,95065.47
2019-02-02T12:55:54.808Z,95073.30
2019-02-02T12:57:35.012Z,95076.13
2019-02-02T12:59:14.469Z,95076.58
2019-02-02T13:00:52.959Z,95080.15
2019-02-02T13:02:38.247Z,95084.15
2019-02-02T13:04:16.328Z,95084.63
2019-02-02T13:06:04.450Z,95082.77
2019-02-02T13:07:42.882Z,95082.45
2019-02-02T13:09:18.584Z,95081.45
2019-02-02T13:10:55.203Z,95086.07
2019-02-02T13:12:35.481Z,95093.04
2019-02-02T13:14:20.802Z,95091.94
2019-02-02T13:15:59.259Z,95096.86
2019-02-02T13:17:36.785Z,95109.26
2019-02-02T13:19:17.747Z,95106.28
2019-02-02T13:21:00.290Z,95113.00
2019-02-02T13:23:07.979Z,95106.12
2019-02-02T13:24:46.112Z,95104.56
2019-02-02T13:26:24.320Z,95104.17
2019-02-02T13:28:02.405Z,95102.38
2019-02-02T13:29:39.182Z,95104.02
2019-02-02T13:31:20.743Z,95101.54
2019-02-02T13:32:55.448Z,95105.28
2019-02-02T13:34:38.005Z,95109.30
2019-02-02T13:36:23.951Z,95112.04
2019-02-02T13:38:03.288Z,95120.78
2019-02-02T13:39:38.531Z,95120.03
2019-02-02T13:41:18.395Z,95127.54
2019-02-02T13:42:56.511Z,95127.09
2019-02-02T13:44:33.427Z,95134.42
2019-02-02T13:46:11.719Z,95135.45
2019-02-02T13:47:47.349Z,95136.43
2019-02-02T13:49:28.190Z,95137.84
2019-02-02T13:51:15.000Z,95132.55
2019-02-02T13:52:57.517Z,95130.77
2019-02-02T13:54:36.752Z,95130.56
2019-02-02T13:56:15.512Z,95135.09
2019-02-02T13:57:53.074Z,95140.64
2019-02-02T13:59:30.432Z,95134.48
2019-02-02T14:01:08.079Z,95136.73
2019-02-02T14:02:45.402Z,95143.95
2019-02-02T14:04:25.761Z,95151.31
2019-02-02T14:06:04.205Z,95149.97
2019-02-02T14:07:39.941Z,95148.22
2019-02-02T14:09:25.949Z,95143.21
2019-02-02T14:11:06.254Z,95144.89
2019-02-02T14:12:43.147Z,95146.67
2019-02-02T14:14:19.482Z,95146.70
2019-02-02T14:15:55.368Z,95154.34
2019-02-02T14:17:33.845Z,95155.69
2019-02-02T14:19:12.110Z,95152.98
2019-02-02T14:20:48.224Z,95154.64
2019-02-02T14:22:24.649Z,95159.94
2019-02-02T14:24:08.285Z,95156.31
2019-02-02T14:25:44.212Z,95162.04
2019-02-02T14:27:22.943Z,95164.84
2019-02-02T14:28:58.520Z,95152.77
2019-02-02T14:30:36.354Z,95161.22
2019-02-02T14:32:15.252Z,95168.72
2019-02-02T14:33:55.459Z,95167.44
2019-02-02T14:35:34.056Z,95178.28
2019-02-02T14:37:18.915Z,95176.51
2019-02-02T14:38:57.460Z,95188.19
2019-02-02T14:40:34.897Z,95184.73
2019-02-02T14:42:18.558Z,95185.36
2019-02-02T14:43:55.905Z,95185.23
2019-02-02T14:45:49.870Z,95188.64
2019-02-02T14:47:25.588Z,95195.91
2019-02-02T14:49:05.095Z,95189.59
2019-02-02T14:50:46.177Z,95187.82
2019-02-02T14:52:29.580Z,95191.76
2019-02-02T14:54:07.027Z,95192.77
2019-02-02T14:55:46.006Z,95185.70
2019-02-02T14:57:21.772Z,95196.84
2019-02-02T14:58:57.137Z,95197.72
2019-02-02T15:00:37.957Z,95200.88
2019-02-02T15:02:19.850Z,95197.06
2019-02-02T15:03:55.282Z,95204.46
2019-02-02T15:05:42.635Z,95211.72
2019-02-02T15:07:23.290Z,95205.90
2019-02-02T15:08:59.064Z,95210.11
2019-02-02T15:10:34.946Z,95216.61
2019-02-02T15:12:10.972Z,95215.97
2019-02-02T15:14:11.024Z,95220.73
2019-02-02T15:15:46.789Z,95222.17
2019-02-02T15:17:25.167Z,95227.91
2019-02-02T15:19:06.764Z,95225.97
2019-02-02T15:20:43.438Z,95227.22
2019-02-02T15:22:23.592Z,95226.38
2019-02-02T15:24:00.757Z,95229.87
2019-02-02T15:25:41.700Z,95234.47
2019-02-02T15:27:21.835Z,95245.36
2019-02-02T15:29:06.217Z,95238.71
2019-02-02T15:31:04.855Z,95239.84
2019-02-02T15:32:51.398Z,95253.39
2019-02-02T15:34:27.741Z,95256.44
2019-02-02T15:36:09.675Z,95262.49
2019-02-02T15:37:48.009Z,95265.27
2019-02-02T15:39:24.141Z,95269.58
2019-02-02T15:41:09.781Z,95275.39
2019-02-02T15:42:51.158Z,95282.36
2019-02-02T15:44:35.850Z,95283.45
2019-02-02T15:46:11.713Z,95287.33
2019-02-02T15:47:50.139Z,95297.16
2019-02-02T15:49:28.561Z,95296.83
2019-02-02T15:51:10.317Z,95302.47
2019-02-02T15:52:55.553Z,95307.85
2019-02-02T15:54:35.212Z,95316.95
2019-02-02T15:56:13.075Z,95313.92
2019-02-02T15:57:50.638Z,95315.08
2019-02-02T15:59:30.229Z,95320.21
2019-02-02T16:01:12.663Z,95323.41
2019-02-02T16:02:49.792Z,95331.39
2019-02-02T16:04:29.729Z,95338.30
2019-02-02T16:06:08.525Z,95341.74
2019-02-02T16:07:43.674Z,95345.47
2019-02-02T16:09:19.771Z,95349.50
2019-02-02T16:10:56.131Z,95351.51
2019-02-02T16:12:32.674Z,95354.86
2019-02-02T16:14:08.295Z,95362.06
2019-02-02T16:15:45.266Z,95359.65
2019-02-02T16:17:21.350Z,95367.62
2019-02-02T16:18:57.096Z,95363.34
2019-02-02T16:20:38.331Z,95365.62
2019-02-02T16:22:17.497Z,95378.05
2019-02-02T16:23:53.462Z,95386.21
2019-02-02T16:25:37.343Z,95386.97
2019-02-02T16:27:19.004Z,95400.78
2019-02-02T16:28:55.606Z,95404.81
2019-02-02T16:30:37.058Z,95418.58
2019-02-02T16:32:19.745Z,95427.09
2019-02-02T16:34:01.603Z,95426.00
2019-02-02T16:35:32.120Z,95432.60
2019-02-02T16:37:10.423Z,95434.59
2019-02-02T16:38:47.909Z,95444.34
2019-02-02T16:40:27.591Z,95440.07
2019-02-02T16:42:02.862Z,95445.58
2019-02-02T16:43:38.355Z,95458.96
2019-02-02T16:45:25.619Z,95460.22
2019-02-02T16:47:01.871Z,95462.09
2019-02-02T16:48:37.057Z,95461.34
2019-02-02T16:50:14.923Z,95465.89
2019-02-02T16:51:50.296Z,95465.84
2019-02-02T16:53:26.225Z,95475.92
2019-02-02T16:55:03.196Z,95485.56
2019-02-02T16:56:51.023Z,95530.75
2019-02-02T16:58:28.265Z,95534.02
2019-02-02T17:00:19.110Z,95534.42
2019-02-02T17:02:01.761Z,95542.49
2019-02-02T17:03:41.085Z,95545.77
2019-02-02T17:05:21.290Z,95541.50
2019-02-02T17:07:01.184Z,95549.30
2019-02-02T17:08:41.601Z,95546.20
2019-02-02T17:10:24.384Z,95549.87
2019-02-02T17:12:01.488Z,95549.39
2019-02-02T17:13:41.880Z,95553.67
2019-02-02T17:15:21.996Z,95564.00
2019-02-02T17:17:00.033Z,95566.11
2019-02-02T17:18:35.959Z,95574.08
2019-02-02T17:20:14.045Z,95566.41
2019-02-02T17:21:55.233Z,95584.52
2019-02-02T17:23:28.574Z,95585.41
2019-02-02T17:25:07.467Z,95586.76
2019-02-02T17:26:42.910Z,95591.91
2019-02-02T17:28:22.580Z,95594.82
2019-02-02T17:29:57.853Z,95596.57
2019-02-02T17:31:35.695Z,95602.53
2019-02-02T17:33:26.620Z,95600.30
2019-02-02T17:35:04.133Z,95603.83
2019-02-02T17:36:39.335Z,95610.14
2019-02-02T17:38:14.702Z,95605.86
2019-02-02T17:39:49.956Z,95614.33
2019-02-02T17:41:25.145Z,95620.14
2019-02-02T17:43:03.568Z,95625.52
2019-02-02T17:44:40.235Z,95627.63
2019-02-02T17:46:19.464Z,95629.30
2019-02-02T17:48:01.877Z,95641.25
2019-02-02T17:49:56.071Z,95646.91
2019-02-02T17:51:34.240Z,95648.08
2019-02-02T17:53:15.247Z,95656.91
2019-02-02T17:54:55.797Z,95652.70
2019-02-02T17:56:31.638Z,95663.45
2019-02-02T17:58:07.442Z,95670.88
2019-02-02T17:59:44.467Z,95665.03
2019-02-02T18:01:20.688Z,95671.63
2019-02-02T18:03:01.912Z,95676.71
2019-02-02T18:04:43.151Z,95672.50
2019-02-02T18:06:17.650Z,95682.05
2019-02-02T18:07:58.429Z,95682.89
2019-02-02T18:09:38.031Z,95680.64
2019-02-02T18:11:20.641Z,95684.55
2019-02-02T18:13:01.741Z,95693.25
2019-02-02T18:14:47.551Z,95696.92
2019-02-02T18:16:37.032Z,95688.59
2019-02-02T18:18:18.091Z,95691.39
2019-02-02T18:20:00.093Z,95698.70
2019-02-02T18:21:39.951Z,95704.66
2019-02-02T18:23:18.245Z,95706.45
2019-02-02T18:24:55.711Z,95705.86
2019-02-02T18:26:32.909Z,95705.10
2019-02-02T18:28:10.785Z,95709.94
2019-02-02T18:29:54.890Z,95716.95
2019-02-02T18:31:48.766Z,95717.31
2019-02-02T18:33:32.627Z,95717.20
2019-02-02T18:35:13.980Z,95719.56
2019-02-02T18:36:50.370Z,95724.83
2019-02-02T18:38:29.105Z,95729.52
2019-02-02T18:40:12.479Z,95725.77
2019-02-02T18:41:52.663Z,95732.57
2019-02-02T18:43:34.935Z,95732.53
2019-02-02T18:45:12.608Z,95733.54
2019-02-02T18:46:49.422Z,95738.27
2019-02-02T18:48:32.197Z,95743.98
2019-02-02T18:50:14.352Z,95749.64
2019-02-02T18:51:53.200Z,95747.43
2019-02-02T18:53:35.329Z,95758.55
2019-02-02T18:55:21.642Z,95759.05
2019-02-02T18:57:00.125Z,95762.10
2019-02-02T18:58:40.301Z,95762.14
2019-02-02T19:00:22.044Z,95759.09
2019-02-02T19:01:58.106Z,95767.73
2019-02-02T19:03:40.711Z,95767.03
2019-02-02T19:05:18.696Z,95765.91
2019-02-02T19:06:57.972Z,95765.29
2019-02-02T19:08:33.268Z,95763.36
2019-02-02T19:10:12.458Z,95762.47
2019-02-02T19:11:47.736Z,95765.19
2019-02-02T19:13:24.766Z,95764.42
2019-02-02T19:15:00.325Z,95767.52